createdAt,value
2022-08-04T00:02:10.513Z,100953.69
2022-08-04T00:04:49.673Z,100953.94
2022-08-04T00:07:44.497Z,100952.91
2022-08-04T00:10:16.005Z,100953.81
2022-08-04T00:12:47.345Z,100950.03
2022-08-04T00:15:17.003Z,100950.94
2022-08-04T00:18:07.688Z,100949.00
2022-08-04T00:20:39.369Z,100958.19
2022-08-04T00:23:07.910Z,100961.16
2022-08-04T00:25:40.626Z,100956.50
2022-08-04T00:28:07.612Z,100954.41
2022-08-04T00:30:34.625Z,100951.84
2022-08-04T00:33:02.545Z,100954.22
2022-08-04T00:35:29.769Z,100951.72
2022-08-04T00:37:57.347Z,100957.00
2022-08-04T00:40:59.577Z,100951.28
2022-08-04T00:43:34.719Z,100950.66
2022-08-04T00:46:20.564Z,100947.66
2022-08-04T00:49:24.965Z,100951.28
2022-08-04T00:52:31.449Z,100952.19
2022-08-04T00:55:18.870Z,100950.78
2022-08-04T00:58:05.191Z,100960.09
2022-08-04T01:00:44.460Z,100953.94
2022-08-04T01:03:18.441Z,100952.44
2022-08-04T01:05:48.417Z,100954.78
2022-08-04T01:08:15.401Z,100959.25
2022-08-04T01:11:19.962Z,100955.44
2022-08-04T01:14:19.695Z,100956.69
2022-08-04T01:17:03.507Z,100958.41
2022-08-04T01:19:46.466Z,100954.63
2022-08-04T01:22:31.843Z,100960.59
2022-08-04T01:25:32.851Z,100965.28
2022-08-04T01:28:30.118Z,100962.56
2022-08-04T01:31:07.323Z,100956.41
2022-08-04T01:34:03.646Z,100956.66
2022-08-04T01:36:35.331Z,100957.09
2022-08-04T01:39:24.949Z,100957.31
2022-08-04T01:41:58.477Z,100960.75
2022-08-04T01:44:31.585Z,100958.22
2022-08-04T01:47:01.806Z,100949.09
2022-08-04T01:49:40.530Z,100955.66
2022-08-04T01:52:09.916Z,100949.75
2022-08-04T01:54:41.955Z,100951.00
2022-08-04T01:59:59.741Z,100944.66
2022-08-04T02:02:27.121Z,100947.22
2022-08-04T02:04:54.069Z,100942.97
2022-08-04T02:07:32.634Z,100950.81
2022-08-04T02:09:59.658Z,100956.97
2022-08-04T02:13:03.635Z,100943.81
2022-08-04T02:15:33.586Z,100946.81
2022-08-04T02:18:04.669Z,100940.88
2022-08-04T02:20:38.041Z,100944.69
2022-08-04T02:23:09.767Z,100946.81
2022-08-04T02:25:56.945Z,100947.66
2022-08-04T02:28:46.605Z,100953.16
2022-08-04T02:31:31.706Z,100950.19
2022-08-04T02:34:08.818Z,100948.06
2022-08-04T02:36:41.607Z,100940.03
2022-08-04T02:39:11.095Z,100939.41
2022-08-04T02:41:42.671Z,100937.53
2022-08-04T02:44:10.576Z,100941.97
2022-08-04T02:46:39.301Z,100935.19
2022-08-04T02:49:09.335Z,100938.16
2022-08-04T02:51:40.460Z,100928.63
2022-08-04T02:54:08.166Z,100943.44
2022-08-04T02:56:37.466Z,100933.28
2022-08-04T02:59:07.391Z,100935.41
2022-08-04T03:01:35.346Z,100934.97
2022-08-04T03:04:24.382Z,100937.91
2022-08-04T03:07:15.678Z,100928.59
2022-08-04T03:10:10.653Z,100930.94
2022-08-04T03:12:59.873Z,100937.06
2022-08-04T03:15:26.656Z,100936.00
2022-08-04T03:18:42.585Z,100932.84
2022-08-04T03:21:18.773Z,100931.78
2022-08-04T03:24:04.749Z,100933.69
2022-08-04T03:26:37.309Z,100932.63
2022-08-04T03:29:36.347Z,100940.00
2022-08-04T03:32:12.991Z,100944.69
2022-08-04T03:34:52.409Z,100948.94
2022-08-04T03:37:39.087Z,100936.88
2022-08-04T03:40:24.755Z,100940.88
2022-08-04T03:43:03.741Z,100938.78
2022-08-04T03:45:52.723Z,100942.16
2022-08-04T03:48:51.750Z,100937.72
2022-08-04T03:51:58.599Z,100940.06
2022-08-04T03:54:47.024Z,100946.63
2022-08-04T03:57:40.479Z,100941.31
2022-08-04T04:00:09.231Z,100947.69
2022-08-04T04:02:47.976Z,100943.22
2022-08-04T04:06:00.226Z,100957.22
2022-08-04T04:08:49.899Z,100944.50
2022-08-04T04:11:35.265Z,100946.41
2022-08-04T04:14:37.553Z,100942.16
2022-08-04T04:17:45.693Z,100945.97
2022-08-04T04:20:30.040Z,100956.13
2022-08-04T04:23:42.059Z,100954.00
2022-08-04T04:26:32.345Z,100954.00
2022-08-04T04:29:26.858Z,100954.66
2022-08-04T04:32:17.509Z,100955.28
2022-08-04T04:35:15.786Z,100952.31
2022-08-04T04:38:09.215Z,100952.69
2022-08-04T04:40:45.418Z,100955.00
2022-08-04T04:43:50.456Z,100964.09
2022-08-04T04:46:46.993Z,100956.84
2022-08-04T04:49:33.143Z,100963.59
2022-08-04T04:52:09.002Z,100955.50
2022-08-04T04:55:04.668Z,100947.84
2022-08-04T04:57:53.328Z,100955.66
2022-08-04T05:00:26.632Z,100955.84
2022-08-04T05:03:23.370Z,100951.75
2022-08-04T05:06:09.478Z,100951.06
2022-08-04T05:08:59.844Z,100954.72
2022-08-04T05:11:45.251Z,100960.56
2022-08-04T05:14:41.148Z,100951.91
2022-08-04T05:17:27.994Z,100952.47
2022-08-04T05:20:07.445Z,100953.44
2022-08-04T05:23:07.504Z,100958.59
2022-08-04T05:25:50.127Z,100956.84
2022-08-04T05:28:43.318Z,100961.00
2022-08-04T05:31:20.091Z,100957.91
2022-08-04T05:34:06.116Z,100958.06
2022-08-04T05:36:57.734Z,100961.91
2022-08-04T05:39:33.777Z,100967.50
2022-08-04T05:42:04.356Z,100960.31
2022-08-04T05:44:34.230Z,100959.53
2022-08-04T05:47:02.769Z,100958.72
2022-08-04T05:49:31.155Z,100961.13
2022-08-04T05:52:03.908Z,100961.06
2022-08-04T05:54:33.305Z,100964.81
2022-08-04T05:57:02.973Z,100967.72
2022-08-04T05:59:31.570Z,100975.22
2022-08-04T06:02:01.531Z,100975.28
2022-08-04T06:04:32.620Z,100986.13
2022-08-04T06:06:59.760Z,100990.69
2022-08-04T06:09:26.935Z,100999.44
2022-08-04T06:12:03.859Z,100989.13
2022-08-04T06:14:38.225Z,100993.44
2022-08-04T06:18:32.397Z,100994.53
2022-08-04T06:20:19.985Z,101000.06
2022-08-04T06:22:47.220Z,100990.47
2022-08-04T06:25:20.553Z,101001.88
2022-08-04T06:27:49.252Z,101000.31
2022-08-04T06:30:19.122Z,101001.59
2022-08-04T06:32:49.925Z,100994.25
2022-08-04T06:35:18.302Z,100990.94
2022-08-04T06:37:47.741Z,100995.22
2022-08-04T06:40:30.821Z,100986.03
2022-08-04T06:43:04.793Z,100997.34
2022-08-04T06:45:34.947Z,100994.75
2022-08-04T06:48:05.113Z,100996.75
2022-08-04T06:51:27.840Z,100993.41
2022-08-04T06:53:23.246Z,100988.28
2022-08-04T06:55:51.874Z,100991.19
2022-08-04T06:58:21.077Z,100996.97
2022-08-04T07:00:49.580Z,100985.13
2022-08-04T07:03:18.833Z,100994.41
2022-08-04T07:05:51.311Z,100992.81
2022-08-04T07:08:19.947Z,100999.50
2022-08-04T07:10:47.484Z,100991.69
2022-08-04T07:13:16.015Z,100991.69
2022-08-04T07:15:45.824Z,100993.66
2022-08-04T07:18:13.086Z,100994.28
2022-08-04T07:20:45.516Z,100993.03
2022-08-04T07:23:17.786Z,100986.72
2022-08-04T07:25:59.671Z,100985.19
2022-08-04T07:28:39.461Z,100983.97
2022-08-04T07:31:09.998Z,100982.03
2022-08-04T07:33:38.308Z,100978.56
2022-08-04T07:36:11.500Z,100986.44
2022-08-04T07:38:50.804Z,100975.53
2022-08-04T07:41:40.319Z,100983.69
2022-08-04T07:44:08.822Z,100976.91
2022-08-04T07:46:37.267Z,100976.16
2022-08-04T07:49:05.553Z,100969.81
2022-08-04T07:51:35.262Z,100980.53
2022-08-04T07:54:05.036Z,100977.28
2022-08-04T07:56:34.038Z,100977.44
2022-08-04T07:59:02.022Z,100981.25
2022-08-04T08:01:30.021Z,100976.78
2022-08-04T08:03:59.856Z,100979.59
2022-08-04T08:06:33.289Z,100977.78
2022-08-04T08:09:14.525Z,100972.63
2022-08-04T08:12:37.069Z,100980.28
2022-08-04T08:14:32.059Z,100970.59
2022-08-04T08:17:03.364Z,100967.59
2022-08-04T08:19:31.799Z,100968.94
2022-08-04T08:22:00.812Z,100962.78
2022-08-04T08:24:35.596Z,100959.25
2022-08-04T08:27:04.790Z,100970.28
2022-08-04T08:29:35.107Z,100971.44
2022-08-04T08:32:09.095Z,100961.94
2022-08-04T08:34:38.600Z,100970.28
2022-08-04T08:37:41.832Z,100968.44
2022-08-04T08:40:39.941Z,100964.59
2022-08-04T08:44:04.701Z,100965.94
2022-08-04T08:46:53.723Z,100960.13
2022-08-04T08:50:02.493Z,100962.44
2022-08-04T08:52:57.516Z,100958.41
2022-08-04T08:55:24.938Z,100967.78
2022-08-04T08:58:17.048Z,100952.50
2022-08-04T09:00:49.975Z,100967.44
2022-08-04T09:04:02.390Z,100962.63
2022-08-04T09:07:04.888Z,100958.31
2022-08-04T09:10:02.793Z,100958.91
2022-08-04T09:12:32.462Z,100962.00
2022-08-04T09:15:05.894Z,100958.50
2022-08-04T09:17:43.120Z,100961.88
2022-08-04T09:20:22.191Z,100960.66
2022-08-04T09:23:07.582Z,100953.50
2022-08-04T09:25:41.281Z,100949.81
2022-08-04T09:28:52.073Z,100956.16
2022-08-04T09:31:48.959Z,100955.47
2022-08-04T09:34:43.805Z,100954.91
2022-08-04T09:37:45.701Z,100948.81
2022-08-04T09:40:53.794Z,100947.13
2022-08-04T09:44:42.718Z,100958.59
2022-08-04T09:46:26.385Z,100957.84
2022-08-04T09:49:03.225Z,100948.13
2022-08-04T09:51:58.064Z,100949.13
2022-08-04T09:54:53.998Z,100947.59
2022-08-04T09:57:31.414Z,100945.56
2022-08-04T10:00:40.576Z,100953.38
2022-08-04T10:03:15.984Z,100942.84
2022-08-04T10:06:18.180Z,100940.53
2022-08-04T10:09:00.912Z,100935.50
2022-08-04T10:11:54.762Z,100931.09
2022-08-04T10:14:52.809Z,100933.75
2022-08-04T10:17:52.216Z,100939.28
2022-08-04T10:20:46.033Z,100934.09
2022-08-04T10:23:32.017Z,100935.00
2022-08-04T10:26:34.990Z,100935.91
2022-08-04T10:29:12.738Z,100919.88
2022-08-04T10:31:46.487Z,100917.56
2022-08-04T10:34:20.235Z,100917.25
2022-08-04T10:37:04.436Z,100921.94
2022-08-04T10:40:21.042Z,100911.69
2022-08-04T10:43:00.468Z,100911.34
2022-08-04T10:45:36.354Z,100918.88
2022-08-04T10:48:14.017Z,100907.19
2022-08-04T10:50:49.108Z,100922.94
2022-08-04T10:53:22.590Z,100910.81
2022-08-04T10:56:06.298Z,100908.19
2022-08-04T10:58:49.797Z,100910.00
2022-08-04T11:02:00.794Z,100901.59
2022-08-04T11:04:29.427Z,100896.84
2022-08-04T11:06:59.445Z,100895.97
2022-08-04T11:09:28.193Z,100897.47
2022-08-04T11:12:02.378Z,100893.53
2022-08-04T11:14:37.600Z,100894.44
2022-08-04T11:17:11.199Z,100886.22
2022-08-04T11:20:18.552Z,100891.00
2022-08-04T11:23:13.094Z,100883.69
2022-08-04T11:25:47.243Z,100879.00
2022-08-04T11:29:03.303Z,100892.53
2022-08-04T11:31:33.650Z,100891.28
2022-08-04T11:34:10.460Z,100890.56
2022-08-04T11:36:53.457Z,100877.94
2022-08-04T11:39:34.192Z,100886.03
2022-08-04T11:42:21.056Z,100883.25
2022-08-04T11:44:51.284Z,100882.88
2022-08-04T11:47:32.939Z,100878.34
2022-08-04T11:50:09.753Z,100876.84
2022-08-04T11:52:42.904Z,100878.97
2022-08-04T11:55:13.521Z,100871.94
2022-08-04T11:57:41.266Z,100873.25
2022-08-04T12:00:12.797Z,100879.31
2022-08-04T12:02:49.605Z,100874.28
2022-08-04T12:05:37.153Z,100873.75
2022-08-04T12:08:08.291Z,100869.06
2022-08-04T12:11:13.563Z,100868.75
2022-08-04T12:14:00.765Z,100862.22
2022-08-04T12:16:42.156Z,100860.94
2022-08-04T12:19:22.341Z,100861.03
2022-08-04T12:21:55.949Z,100865.25
2022-08-04T12:24:30.912Z,100861.03
2022-08-04T12:27:04.859Z,100858.03
2022-08-04T12:29:34.773Z,100862.84
2022-08-04T12:32:13.420Z,100855.88
2022-08-04T12:35:14.998Z,100856.66
2022-08-04T12:38:05.100Z,100854.75
2022-08-04T12:41:05.233Z,100860.91
2022-08-04T12:43:38.989Z,100853.22
2022-08-04T12:46:09.167Z,100849.28
2022-08-04T12:48:39.408Z,100843.75
2022-08-04T12:52:06.237Z,100853.34
2022-08-04T12:53:58.039Z,100844.53
2022-08-04T12:56:29.733Z,100841.78
2022-08-04T12:59:06.762Z,100843.31
2022-08-04T13:02:09.815Z,100840.22
2022-08-04T13:04:34.797Z,100831.59
2022-08-04T13:07:09.922Z,100839.25
2022-08-04T13:09:38.131Z,100837.81
2022-08-04T13:12:15.339Z,100830.50
2022-08-04T13:14:46.080Z,100823.84
2022-08-04T13:19:47.447Z,100822.47
2022-08-04T13:22:28.297Z,100821.09
2022-08-04T13:26:38.828Z,100821.25
2022-08-04T13:27:55.385Z,100817.59
2022-08-04T13:30:27.386Z,100814.22
2022-08-04T13:32:59.381Z,100811.53
2022-08-04T13:35:54.643Z,100813.72
2022-08-04T13:38:17.959Z,100811.41
2022-08-04T13:40:46.017Z,100811.03
2022-08-04T13:44:15.640Z,100816.00
2022-08-04T13:46:28.104Z,100815.56
2022-08-04T13:49:25.978Z,100824.25
2022-08-04T13:51:59.099Z,100817.97
2022-08-04T13:54:44.429Z,100808.88
2022-08-04T13:57:17.514Z,100807.50
2022-08-04T13:59:53.101Z,100800.56
2022-08-04T14:02:39.059Z,100803.31
2022-08-04T14:05:18.326Z,100800.16
2022-08-04T14:08:14.515Z,100794.50
2022-08-04T14:10:41.871Z,100797.56
2022-08-04T14:13:09.479Z,100788.91
2022-08-04T14:16:01.073Z,100785.81
2022-08-04T14:18:32.777Z,100780.94
2022-08-04T14:21:13.620Z,100780.22
2022-08-04T14:23:55.127Z,100777.94
2022-08-04T14:26:32.424Z,100773.97
2022-08-04T14:29:26.789Z,100780.56
2022-08-04T14:32:01.996Z,100778.84
2022-08-04T14:34:30.864Z,100771.72
2022-08-04T14:37:17.039Z,100770.16
2022-08-04T14:40:17.368Z,100772.06
2022-08-04T14:42:55.619Z,100773.94
2022-08-04T14:45:31.756Z,100773.84
2022-08-04T14:47:59.409Z,100774.91
2022-08-04T14:50:36.929Z,100766.78
2022-08-04T14:53:08.539Z,100760.44
2022-08-04T14:55:37.263Z,100769.84
2022-08-04T14:58:35.798Z,100765.19
2022-08-04T15:00:56.085Z,100765.19
2022-08-04T15:03:24.536Z,100756.91
2022-08-04T15:06:00.792Z,100758.38
2022-08-04T15:08:31.921Z,100761.44
2022-08-04T15:11:03.220Z,100761.13
2022-08-04T15:13:33.556Z,100753.31
2022-08-04T15:16:07.819Z,100754.28
2022-08-04T15:18:39.406Z,100747.47
2022-08-04T15:21:07.984Z,100745.56
2022-08-04T15:23:39.747Z,100747.63
2022-08-04T15:26:12.937Z,100750.59
2022-08-04T15:28:46.139Z,100746.56
2022-08-04T15:32:05.381Z,100748.84
2022-08-04T15:34:03.040Z,100747.38
2022-08-04T15:36:43.411Z,100740.41
2022-08-04T15:39:33.720Z,100734.31
2022-08-04T15:42:17.536Z,100742.44
2022-08-04T15:44:53.912Z,100736.59
2022-08-04T15:47:27.331Z,100734.94
2022-08-04T15:50:07.620Z,100734.94
2022-08-04T15:53:00.989Z,100724.59
2022-08-04T15:55:43.954Z,100721.63
2022-08-04T15:58:16.921Z,100731.66
2022-08-04T16:00:50.018Z,100733.69
2022-08-04T16:03:58.180Z,100734.34
2022-08-04T16:06:23.097Z,100732.28
2022-08-04T16:09:03.080Z,100726.97
2022-08-04T16:11:32.211Z,100725.47
2022-08-04T16:14:01.981Z,100721.91
2022-08-04T16:16:38.510Z,100732.06
2022-08-04T16:19:08.299Z,100729.53
2022-08-04T16:21:57.188Z,100720.97
2022-08-04T16:24:35.209Z,100724.91
2022-08-04T16:27:07.518Z,100713.69
2022-08-04T16:29:38.407Z,100720.25
2022-08-04T16:32:05.626Z,100719.03
2022-08-04T16:34:50.316Z,100723.50
2022-08-04T16:37:23.562Z,100719.06
2022-08-04T16:40:10.385Z,100719.94
2022-08-04T16:42:37.562Z,100704.59
2022-08-04T16:45:07.487Z,100709.63
2022-08-04T16:47:49.838Z,100707.16
2022-08-04T16:50:22.061Z,100712.56
2022-08-04T16:52:54.708Z,100716.50
2022-08-04T16:55:28.025Z,100717.34
2022-08-04T16:58:01.120Z,100709.25
2022-08-04T17:00:31.736Z,100710.44
2022-08-04T17:03:03.107Z,100714.09
2022-08-04T17:05:39.774Z,100716.06
2022-08-04T17:10:55.717Z,100706.63
2022-08-04T17:14:02.055Z,100716.72
2022-08-04T17:16:21.104Z,100712.00
2022-08-04T17:18:50.351Z,100709.53
2022-08-04T17:21:30.003Z,100710.06
2022-08-04T17:24:13.410Z,100710.38
2022-08-04T17:26:53.709Z,100712.91
2022-08-04T17:29:43.248Z,100706.22
2022-08-04T17:32:16.866Z,100707.38
2022-08-04T17:34:49.597Z,100700.44
2022-08-04T17:37:40.523Z,100704.06
2022-08-04T17:40:10.373Z,100702.69
2022-08-04T17:42:39.994Z,100703.84
2022-08-04T17:45:49.372Z,100701.41
2022-08-04T17:47:59.703Z,100702.25
2022-08-04T17:50:34.787Z,100707.63
2022-08-04T17:53:12.170Z,100698.69
2022-08-04T17:55:49.502Z,100702.66
2022-08-04T17:58:21.936Z,100701.84
2022-08-04T18:01:23.823Z,100703.28
2022-08-04T18:03:51.599Z,100696.56
2022-08-04T18:06:19.828Z,100703.28
2022-08-04T18:08:54.874Z,100698.25
2022-08-04T18:11:29.778Z,100701.91
2022-08-04T18:14:10.229Z,100701.91
2022-08-04T18:16:44.877Z,100699.44
2022-08-04T18:19:13.626Z,100706.16
2022-08-04T18:21:46.758Z,100701.09
2022-08-04T18:24:35.170Z,100700.25
2022-08-04T18:27:17.911Z,100697.72
2022-08-04T18:30:14.609Z,100703.31
2022-08-04T18:32:33.415Z,100696.03
2022-08-04T18:35:05.151Z,100694.63
2022-08-04T18:40:29.937Z,100712.97
2022-08-04T18:43:03.616Z,100707.06
2022-08-04T18:45:34.620Z,100713.75
2022-08-04T18:48:04.309Z,100710.09
2022-08-04T18:51:11.323Z,100710.31
2022-08-04T18:53:35.102Z,100708.00
2022-08-04T18:56:06.366Z,100715.78
2022-08-04T18:58:43.035Z,100719.13
2022-08-04T19:01:14.198Z,100719.66
2022-08-04T19:03:49.439Z,100722.41
2022-08-04T19:06:25.800Z,100721.84
2022-08-04T19:08:53.143Z,100717.63
2022-08-04T19:11:38.046Z,100718.66
2022-08-04T19:14:07.640Z,100714.16
2022-08-04T19:16:40.862Z,100717.09
2022-08-04T19:19:12.792Z,100714.84
2022-08-04T19:22:00.726Z,100714.81
2022-08-04T19:24:32.460Z,100706.44
2022-08-04T19:27:07.049Z,100712.00
2022-08-04T19:29:40.808Z,100709.50
2022-08-04T19:32:15.001Z,100715.34
2022-08-04T19:34:46.309Z,100722.28
2022-08-04T19:37:57.410Z,100720.59
2022-08-04T19:40:09.620Z,100718.06
2022-08-04T19:42:37.876Z,100720.28
2022-08-04T19:45:06.848Z,100710.75
2022-08-04T19:48:17.145Z,100717.94
2022-08-04T19:50:23.637Z,100722.94
2022-08-04T19:52:53.994Z,100722.63
2022-08-04T19:55:36.884Z,100725.66
2022-08-04T19:58:11.863Z,100727.31
2022-08-04T20:04:10.041Z,100718.94
2022-08-04T20:06:16.554Z,100725.03
2022-08-04T20:08:48.252Z,100728.31
2022-08-04T20:11:18.542Z,100724.16
2022-08-04T20:13:54.248Z,100733.81
2022-08-04T20:16:30.085Z,100739.25
2022-08-04T20:19:03.124Z,100734.47
2022-08-04T20:21:53.780Z,100733.59
2022-08-04T20:24:39.068Z,100734.03
2022-08-04T20:27:11.517Z,100737.03
2022-08-04T20:29:46.072Z,100730.22
2022-08-04T20:32:22.271Z,100733.50
2022-08-04T20:34:54.512Z,100727.81
2022-08-04T20:37:25.748Z,100723.63
2022-08-04T20:40:12.661Z,100722.19
2022-08-04T20:42:45.009Z,100726.84
2022-08-04T20:45:16.274Z,100726.50
2022-08-04T20:47:53.363Z,100726.69
2022-08-04T20:50:29.925Z,100730.22
2022-08-04T20:52:58.353Z,100726.88
2022-08-04T20:55:29.818Z,100720.97
2022-08-04T20:58:03.155Z,100724.84
2022-08-04T21:00:31.887Z,100725.38
2022-08-04T21:02:59.952Z,100723.94
2022-08-04T21:05:27.557Z,100726.72
2022-08-04T21:07:57.087Z,100728.06
2022-08-04T21:10:27.877Z,100730.97
2022-08-04T21:12:55.455Z,100728.72
2022-08-04T21:15:50.717Z,100728.13
2022-08-04T21:18:13.946Z,100733.94
2022-08-04T21:20:43.171Z,100725.00
2022-08-04T21:23:10.515Z,100728.03
2022-08-04T21:25:42.582Z,100728.03
2022-08-04T21:28:11.220Z,100734.09
2022-08-04T21:30:54.344Z,100731.84
2022-08-04T21:33:50.059Z,100728.38
2022-08-04T21:36:12.482Z,100728.38
2022-08-04T21:38:39.581Z,100719.13
2022-08-04T21:41:09.418Z,100729.41
2022-08-04T21:43:42.624Z,100727.72
2022-08-04T21:46:11.500Z,100711.59
2022-08-04T21:48:39.347Z,100717.06
2022-08-04T21:51:58.973Z,100723.44
2022-08-04T21:54:04.168Z,100730.44
2022-08-04T21:56:33.660Z,100725.03
2022-08-04T21:59:02.617Z,100728.56
2022-08-04T22:01:52.332Z,100731.94
2022-08-04T22:04:20.209Z,100733.53
2022-08-04T22:06:52.575Z,100736.81
2022-08-04T22:09:22.370Z,100736.47
2022-08-04T22:11:52.024Z,100735.13
2022-08-04T22:14:27.361Z,100721.91
2022-08-04T22:16:57.758Z,100721.31
2022-08-04T22:19:49.792Z,100723.50
2022-08-04T22:22:13.507Z,100716.97
2022-08-04T22:24:51.890Z,100717.97
2022-08-04T22:27:37.421Z,100717.13
2022-08-04T22:30:17.300Z,100714.03
2022-08-04T22:32:47.099Z,100713.31
2022-08-04T22:35:42.938Z,100706.09
2022-08-04T22:38:06.086Z,100712.47
2022-08-04T22:40:38.487Z,100710.94
2022-08-04T22:43:22.599Z,100713.97
2022-08-04T22:45:52.596Z,100706.16
2022-08-04T22:48:19.707Z,100703.03
2022-08-04T22:50:46.778Z,100710.16
2022-08-04T22:53:17.968Z,100704.84
2022-08-04T22:56:07.339Z,100712.34
2022-08-04T22:58:32.615Z,100709.56
2022-08-04T23:00:59.878Z,100704.41
2022-08-04T23:03:36.836Z,100704.31
2022-08-04T23:06:11.768Z,100703.72
2022-08-04T23:08:43.034Z,100707.69
2022-08-04T23:11:13.963Z,100711.28
2022-08-04T23:13:42.022Z,100708.16
2022-08-04T23:16:10.371Z,100712.88
2022-08-04T23:18:40.049Z,100703.47
2022-08-04T23:21:09.817Z,100714.91
2022-08-04T23:23:38.151Z,100714.31
2022-08-04T23:26:14.356Z,100706.72
2022-08-04T23:28:42.470Z,100712.03
2022-08-04T23:31:10.039Z,100706.38
2022-08-04T23:33:49.271Z,100708.19
2022-08-04T23:36:29.681Z,100702.91
2022-08-04T23:39:04.055Z,100709.78
2022-08-04T23:41:53.479Z,100699.66
2022-08-04T23:44:25.417Z,100698.81
2022-08-04T23:47:04.490Z,100710.41
2022-08-04T23:49:43.725Z,100701.84
2022-08-04T23:52:15.750Z,100700.41
2022-08-04T23:54:54.622Z,100699.66
2022-08-04T23:57:22.304Z,100695.09
2022-08-04T23:59:54.258Z,100694.75
